createdAt,value
2018-09-19T00:00:02.490Z,7.30
2018-09-19T00:01:02.742Z,7.10
2018-09-19T00:02:02.985Z,7.70
2018-09-19T00:03:03.227Z,8.90
2018-09-19T00:04:03.503Z,7.90
2018-09-19T00:05:03.712Z,9.50
2018-09-19T00:06:03.957Z,10.50
2018-09-19T00:07:04.200Z,7.40
2018-09-19T00:08:04.440Z,8.90
2018-09-19T00:09:04.682Z,11.70
2018-09-19T00:10:04.922Z,8.30
2018-09-19T00:11:05.171Z,7.40
2018-09-19T00:12:05.410Z,9.20
2018-09-19T00:13:05.651Z,9.60
2018-09-19T00:14:05.894Z,9.60
2018-09-19T00:15:06.136Z,9.60
2018-09-19T00:16:06.383Z,9.40
2018-09-19T00:17:06.625Z,11.00
2018-09-19T00:18:06.865Z,13.60
2018-09-19T00:19:07.107Z,9.20
2018-09-19T00:20:07.361Z,6.90
2018-09-19T00:21:07.594Z,9.50
2018-09-19T00:22:07.834Z,9.40
2018-09-19T00:23:08.076Z,11.80
2018-09-19T00:24:08.318Z,8.70
2018-09-19T00:25:08.561Z,7.30
2018-09-19T00:26:08.803Z,10.00
2018-09-19T00:27:09.044Z,9.10
2018-09-19T00:28:09.292Z,7.30
2018-09-19T00:29:09.525Z,7.30
2018-09-19T00:30:09.769Z,8.80
2018-09-19T00:31:10.015Z,9.20
2018-09-19T00:32:10.256Z,10.30
2018-09-19T00:33:10.500Z,8.30
2018-09-19T00:34:10.741Z,6.50
2018-09-19T00:35:10.981Z,7.30
2018-09-19T00:36:11.225Z,11.00
2018-09-19T00:37:11.466Z,8.00
2018-09-19T00:38:11.706Z,7.10
2018-09-19T00:39:11.947Z,7.40
2018-09-19T00:40:12.193Z,7.90
2018-09-19T00:41:12.435Z,8.70
2018-09-19T00:42:12.677Z,14.20
2018-09-19T00:43:12.920Z,11.30
2018-09-19T00:44:13.161Z,9.50
2018-09-19T00:45:13.428Z,10.60
2018-09-19T00:46:13.645Z,8.50
2018-09-19T00:47:13.887Z,10.80
2018-09-19T00:48:14.128Z,8.30
2018-09-19T00:49:14.372Z,12.40
2018-09-19T00:50:14.613Z,8.80
2018-09-19T00:51:14.856Z,8.60
2018-09-19T00:52:15.107Z,9.40
2018-09-19T00:53:15.339Z,9.90
2018-09-19T00:54:15.636Z,10.50
2018-09-19T00:55:15.822Z,9.50
2018-09-19T00:56:16.063Z,10.10
2018-09-19T00:57:16.306Z,6.90
2018-09-19T00:58:16.547Z,8.80
2018-09-19T00:59:16.789Z,10.40
2018-09-19T01:00:17.033Z,7.70
2018-09-19T01:01:17.274Z,8.10
2018-09-19T01:02:17.515Z,11.70
2018-09-19T01:03:17.758Z,10.30
2018-09-19T01:04:17.998Z,8.80
2018-09-19T01:05:18.241Z,13.90
2018-09-19T01:06:18.478Z,13.60
2018-09-19T01:07:18.720Z,14.60
2018-09-19T01:08:18.960Z,10.00
2018-09-19T01:09:19.206Z,8.80
2018-09-19T01:10:19.444Z,13.40
2018-09-19T01:11:19.688Z,11.40
2018-09-19T01:12:19.931Z,9.70
2018-09-19T01:13:20.169Z,10.00
2018-09-19T01:14:20.410Z,12.90
2018-09-19T01:15:20.685Z,11.10
2018-09-19T01:16:20.895Z,8.90
2018-09-19T01:17:21.134Z,13.30
2018-09-19T01:18:21.373Z,10.80
2018-09-19T01:19:21.613Z,9.00
2018-09-19T01:20:21.854Z,12.20
2018-09-19T01:21:22.090Z,15.40
2018-09-19T01:22:22.338Z,13.10
2018-09-19T01:23:22.585Z,11.80
2018-09-19T01:24:22.823Z,12.60
2018-09-19T01:25:23.068Z,13.10
2018-09-19T01:26:23.308Z,14.90
2018-09-19T01:27:23.549Z,16.70
2018-09-19T01:28:23.790Z,14.60
2018-09-19T01:29:24.032Z,16.20
2018-09-19T01:30:24.275Z,13.80
2018-09-19T01:31:24.520Z,12.30
2018-09-19T01:32:24.768Z,15.20
2018-09-19T01:33:25.005Z,11.70
2018-09-19T01:34:25.255Z,13.20
2018-09-19T01:35:25.491Z,12.10
2018-09-19T01:36:25.728Z,16.00
2018-09-19T01:37:26.024Z,12.80
2018-09-19T01:38:26.210Z,12.70
2018-09-19T01:39:26.453Z,13.20
2018-09-19T01:40:26.698Z,15.40
2018-09-19T01:41:26.937Z,13.90
2018-09-19T01:42:27.179Z,13.20
2018-09-19T01:43:27.420Z,15.40
2018-09-19T01:44:27.666Z,13.10
2018-09-19T01:45:27.907Z,15.30
2018-09-19T01:46:28.147Z,13.30
2018-09-19T01:47:28.389Z,16.30
2018-09-19T01:48:28.632Z,14.10
2018-09-19T01:49:28.873Z,14.50
2018-09-19T01:50:29.117Z,14.70
2018-09-19T01:51:29.358Z,14.40
2018-09-19T01:52:29.601Z,13.60
2018-09-19T01:53:29.845Z,16.40
2018-09-19T01:54:30.085Z,14.50
2018-09-19T01:55:30.330Z,13.60
2018-09-19T01:56:30.571Z,12.90
2018-09-19T01:57:30.809Z,15.80
2018-09-19T01:58:31.054Z,15.30
2018-09-19T01:59:31.299Z,14.90
2018-09-19T02:00:31.538Z,14.50
2018-09-19T02:01:31.782Z,16.50
2018-09-19T02:02:32.021Z,14.60
2018-09-19T02:03:32.277Z,14.30
2018-09-19T02:04:32.509Z,16.30
2018-09-19T02:05:32.750Z,15.20
2018-09-19T02:06:32.993Z,14.40
2018-09-19T02:07:33.237Z,13.40
2018-09-19T02:08:33.475Z,13.60
2018-09-19T02:09:33.716Z,13.20
2018-09-19T02:10:33.957Z,13.50
2018-09-19T02:11:34.199Z,13.80
2018-09-19T02:12:34.442Z,13.60
2018-09-19T02:13:34.685Z,14.90
2018-09-19T02:14:34.926Z,15.50
2018-09-19T02:15:35.169Z,12.20
2018-09-19T02:16:35.409Z,18.80
2018-09-19T02:17:35.651Z,14.90
2018-09-19T02:18:35.902Z,14.00
2018-09-19T02:19:36.135Z,13.30
2018-09-19T02:20:36.381Z,14.60
2018-09-19T02:21:36.619Z,15.30
2018-09-19T02:22:36.865Z,14.90
2018-09-19T02:23:37.099Z,15.20
2018-09-19T02:24:37.337Z,14.00
2018-09-19T02:25:37.577Z,13.90
2018-09-19T02:26:37.821Z,13.60
2018-09-19T02:27:38.062Z,14.10
2018-09-19T02:28:38.330Z,17.20
2018-09-19T02:29:38.546Z,15.60
2018-09-19T02:30:38.786Z,14.30
2018-09-19T02:31:39.028Z,13.50
2018-09-19T02:32:39.269Z,12.80
2018-09-19T02:33:39.508Z,14.00
2018-09-19T02:34:39.749Z,13.90
2018-09-19T02:35:39.989Z,13.80
2018-09-19T02:36:40.235Z,15.30
2018-09-19T02:37:40.476Z,12.40
2018-09-19T02:38:40.712Z,15.50
2018-09-19T02:39:40.957Z,13.80
2018-09-19T02:40:41.193Z,15.20
2018-09-19T02:41:41.429Z,12.90
2018-09-19T02:42:41.671Z,16.30
2018-09-19T02:43:41.910Z,14.70
2018-09-19T02:44:42.152Z,16.60
2018-09-19T02:45:42.394Z,13.60
2018-09-19T02:46:42.654Z,14.30
2018-09-19T02:47:42.881Z,13.00
2018-09-19T02:48:43.117Z,12.10
2018-09-19T02:49:43.356Z,14.80
2018-09-19T02:50:43.596Z,13.10
2018-09-19T02:51:43.841Z,15.20
2018-09-19T02:52:44.079Z,10.70
2018-09-19T02:53:44.343Z,12.90
2018-09-19T02:54:44.568Z,11.80
2018-09-19T02:55:44.804Z,11.80
2018-09-19T02:56:45.042Z,12.10
2018-09-19T02:57:45.279Z,14.00
2018-09-19T02:58:45.520Z,12.90
2018-09-19T02:59:45.762Z,13.50
2018-09-19T03:00:46.015Z,12.70
2018-09-19T03:01:46.239Z,10.90
2018-09-19T03:02:46.485Z,11.30
2018-09-19T03:03:46.730Z,12.40
2018-09-19T03:04:46.990Z,11.30
2018-09-19T03:05:47.210Z,12.80
2018-09-19T03:06:47.451Z,13.20
2018-09-19T03:07:47.691Z,15.90
2018-09-19T03:08:47.935Z,14.30
2018-09-19T03:09:48.175Z,22.30
2018-09-19T03:10:48.416Z,26.70
2018-09-19T03:11:48.658Z,18.00
2018-09-19T03:12:48.896Z,13.40
2018-09-19T03:13:49.136Z,13.50
2018-09-19T03:14:49.380Z,13.30
2018-09-19T03:15:49.619Z,13.30
2018-09-19T03:19:01.677Z,13.80
2018-09-19T03:20:01.933Z,15.50
2018-09-19T03:21:02.158Z,13.60
2018-09-19T03:22:02.398Z,13.10
2018-09-19T03:23:02.638Z,13.30
2018-09-19T03:24:02.877Z,10.70
2018-09-19T03:25:03.117Z,11.10
2018-09-19T03:26:03.362Z,14.10
2018-09-19T03:27:03.600Z,28.50
2018-09-19T03:28:03.841Z,35.80
2018-09-19T03:29:04.083Z,99.00
2018-09-19T03:30:04.324Z,176.40
2018-09-19T03:31:04.575Z,126.00
2018-09-19T03:32:04.806Z,94.90
2018-09-19T03:33:05.048Z,92.70
2018-09-19T03:34:05.288Z,59.60
2018-09-19T03:35:05.531Z,46.70
2018-09-19T03:36:05.771Z,41.00
2018-09-19T03:37:06.009Z,28.30
2018-09-19T03:38:06.249Z,24.40
2018-09-19T03:39:06.491Z,17.30
2018-09-19T03:40:06.735Z,16.10
2018-09-19T03:41:06.973Z,14.60
2018-09-19T03:42:07.212Z,14.60
2018-09-19T03:43:07.458Z,14.30
2018-09-19T03:44:07.690Z,14.70
2018-09-19T03:45:07.931Z,14.30
2018-09-19T03:46:08.174Z,16.20
2018-09-19T03:47:08.415Z,16.80
2018-09-19T03:48:08.656Z,18.50
2018-09-19T03:49:08.900Z,15.90
2018-09-19T03:50:09.140Z,16.10
2018-09-19T03:51:09.381Z,16.00
2018-09-19T03:52:09.623Z,15.60
2018-09-19T03:53:09.863Z,15.80
2018-09-19T03:54:10.104Z,14.80
2018-09-19T03:55:10.345Z,15.60
2018-09-19T03:56:10.588Z,16.80
2018-09-19T03:57:10.829Z,15.00
2018-09-19T03:58:11.125Z,17.10
2018-09-19T03:59:11.313Z,16.80
2018-09-19T04:00:11.569Z,15.30
2018-09-19T04:01:11.797Z,14.50
2018-09-19T04:02:12.035Z,15.90
2018-09-19T04:03:12.276Z,16.40
2018-09-19T04:04:12.516Z,14.00
2018-09-19T04:05:12.758Z,16.70
2018-09-19T04:06:12.999Z,16.70
2018-09-19T04:07:13.241Z,16.80
2018-09-19T04:08:13.483Z,20.50
2018-09-19T04:09:13.724Z,17.40
2018-09-19T04:10:13.964Z,19.60
2018-09-19T04:11:14.207Z,15.50
2018-09-19T04:12:14.451Z,18.40
2018-09-19T04:13:14.693Z,13.00
2018-09-19T04:14:14.933Z,14.80
2018-09-19T04:15:15.175Z,12.20
2018-09-19T04:16:15.414Z,12.00
2018-09-19T04:17:15.660Z,13.40
2018-09-19T04:18:15.899Z,12.10
2018-09-19T04:19:16.230Z,10.60
2018-09-19T04:20:16.375Z,13.50
2018-09-19T04:21:16.614Z,13.90
2018-09-19T04:22:16.854Z,14.00
2018-09-19T04:23:17.096Z,14.70
2018-09-19T04:24:17.334Z,16.20
2018-09-19T04:25:17.575Z,16.50
2018-09-19T04:26:17.814Z,16.10
2018-09-19T04:27:18.057Z,16.60
2018-09-19T04:28:18.295Z,20.90
2018-09-19T04:29:18.534Z,18.90
2018-09-19T04:30:18.777Z,17.50
2018-09-19T04:31:19.016Z,17.40
2018-09-19T04:32:19.329Z,20.30
2018-09-19T04:33:19.498Z,20.90
2018-09-19T04:34:19.741Z,20.20
2018-09-19T04:35:19.981Z,23.00
2018-09-19T04:36:20.218Z,22.70
2018-09-19T04:37:20.462Z,23.10
2018-09-19T04:38:20.701Z,19.70
2018-09-19T04:39:20.931Z,18.30
2018-09-19T04:40:21.181Z,16.60
2018-09-19T04:41:21.416Z,17.90
2018-09-19T04:42:21.665Z,17.20
2018-09-19T04:43:21.902Z,17.30
2018-09-19T04:44:22.136Z,16.20
2018-09-19T04:45:22.379Z,17.80
2018-09-19T04:46:22.619Z,18.70
2018-09-19T04:47:23.033Z,17.20
2018-09-19T04:48:23.287Z,20.00
2018-09-19T04:49:23.507Z,18.40
2018-09-19T04:50:23.747Z,17.10
2018-09-19T04:51:24.003Z,17.00
2018-09-19T04:52:24.224Z,17.20
2018-09-19T04:53:24.465Z,17.50
2018-09-19T04:54:24.696Z,19.80
2018-09-19T04:55:24.952Z,15.80
2018-09-19T04:56:25.197Z,18.70
2018-09-19T04:57:25.438Z,17.50
2018-09-19T04:58:25.660Z,16.90
2018-09-19T04:59:25.905Z,20.90
2018-09-19T05:00:26.169Z,19.10
2018-09-19T05:01:26.388Z,16.30
2018-09-19T05:02:26.628Z,17.20
2018-09-19T05:03:26.871Z,18.90
2018-09-19T05:04:27.110Z,17.80
2018-09-19T05:05:27.356Z,19.40
2018-09-19T05:06:27.622Z,17.40
2018-09-19T05:07:27.957Z,18.90
2018-09-19T05:08:28.201Z,18.20
2018-09-19T05:09:28.595Z,14.80
2018-09-19T05:10:28.853Z,17.60
2018-09-19T05:11:29.135Z,16.00
2018-09-19T05:12:29.331Z,21.00
2018-09-19T05:13:29.569Z,15.40
2018-09-19T05:14:29.810Z,17.30
2018-09-19T05:15:30.062Z,19.50
2018-09-19T05:16:30.291Z,18.40
2018-09-19T05:17:30.555Z,20.80
2018-09-19T05:18:30.799Z,17.90
2018-09-19T05:19:31.051Z,18.90
2018-09-19T05:20:31.299Z,17.20
2018-09-19T05:21:31.538Z,18.10
2018-09-19T05:22:31.779Z,18.20
2018-09-19T05:23:32.018Z,15.30
2018-09-19T05:24:32.261Z,17.70
2018-09-19T05:25:32.504Z,16.00
2018-09-19T05:26:32.741Z,15.70
2018-09-19T05:27:32.984Z,14.60
2018-09-19T05:28:33.227Z,15.90
2018-09-19T05:29:33.469Z,16.00
2018-09-19T05:30:33.708Z,14.60
2018-09-19T05:31:33.958Z,20.70
2018-09-19T05:32:34.191Z,16.80
2018-09-19T05:33:34.430Z,14.20
2018-09-19T05:34:34.668Z,16.90
2018-09-19T05:35:34.909Z,15.80
2018-09-19T05:36:35.148Z,17.00
2018-09-19T05:37:35.394Z,16.60
2018-09-19T05:38:35.632Z,18.90
2018-09-19T05:39:35.874Z,14.30
2018-09-19T05:40:36.110Z,13.90
2018-09-19T05:41:36.353Z,12.90
2018-09-19T05:42:36.594Z,15.90
2018-09-19T05:43:36.834Z,15.30
2018-09-19T05:44:37.075Z,21.90
2018-09-19T05:45:37.313Z,21.00
2018-09-19T05:46:37.634Z,19.70
2018-09-19T05:47:37.795Z,19.40
2018-09-19T05:48:38.038Z,21.20
2018-09-19T05:49:38.305Z,17.20
2018-09-19T05:50:38.516Z,14.80
2018-09-19T05:51:38.757Z,15.50
2018-09-19T05:52:39.003Z,15.70
2018-09-19T05:53:39.237Z,19.80
2018-09-19T05:54:39.552Z,15.80
2018-09-19T05:55:39.719Z,16.80
2018-09-19T05:56:39.962Z,16.80
2018-09-19T05:57:40.203Z,15.10
2018-09-19T05:58:40.441Z,19.80
2018-09-19T05:59:40.684Z,16.20
2018-09-19T06:00:40.923Z,15.30
2018-09-19T06:01:41.168Z,15.50
2018-09-19T06:02:41.405Z,13.20
2018-09-19T06:03:41.654Z,16.00
2018-09-19T06:04:41.916Z,15.50
2018-09-19T06:05:42.132Z,16.70
2018-09-19T06:06:42.374Z,16.50
2018-09-19T06:07:42.618Z,17.20
2018-09-19T06:08:42.860Z,13.90
2018-09-19T06:09:43.096Z,16.40
2018-09-19T06:10:43.342Z,13.50
2018-09-19T06:11:43.583Z,15.80
2018-09-19T06:12:43.841Z,21.80
2018-09-19T06:13:44.069Z,15.50
2018-09-19T06:14:44.308Z,15.40
2018-09-19T06:15:44.557Z,17.30
2018-09-19T06:16:44.790Z,16.10
2018-09-19T06:17:45.034Z,14.90
2018-09-19T06:18:45.276Z,17.60
2018-09-19T06:19:45.517Z,17.30
2018-09-19T06:20:45.762Z,15.70
2018-09-19T06:21:46.008Z,17.90
2018-09-19T06:22:46.245Z,16.40
2018-09-19T06:23:46.536Z,16.90
2018-09-19T06:24:46.731Z,17.70
2018-09-19T06:25:46.972Z,18.30
2018-09-19T06:26:47.244Z,15.50
2018-09-19T06:27:47.458Z,15.00
2018-09-19T06:28:47.697Z,16.80
2018-09-19T06:29:47.942Z,15.30
2018-09-19T06:30:48.186Z,18.30
2018-09-19T06:31:48.429Z,19.90
2018-09-19T06:32:48.737Z,21.60
2018-09-19T06:33:48.915Z,18.60
2018-09-19T06:34:49.159Z,23.60
2018-09-19T06:35:49.406Z,18.00
2018-09-19T06:36:49.650Z,21.30
2018-09-19T06:37:49.891Z,19.80
2018-09-19T06:38:50.136Z,16.30
2018-09-19T06:39:50.391Z,18.30
2018-09-19T06:40:50.658Z,18.30
2018-09-19T06:41:50.869Z,14.80
2018-09-19T06:42:51.120Z,14.50
2018-09-19T06:43:51.365Z,14.90
2018-09-19T06:44:51.610Z,14.20
2018-09-19T06:45:51.860Z,16.90
2018-09-19T06:46:52.164Z,15.20
2018-09-19T06:47:52.349Z,14.00
2018-09-19T06:48:52.602Z,13.40
2018-09-19T06:49:52.843Z,14.50
2018-09-19T06:50:53.091Z,17.60
2018-09-19T06:51:53.402Z,14.40
2018-09-19T06:52:53.582Z,17.60
2018-09-19T06:53:53.830Z,19.20
2018-09-19T06:54:54.075Z,17.90
2018-09-19T06:55:54.323Z,19.30
2018-09-19T06:56:54.571Z,17.50
2018-09-19T06:57:54.818Z,21.80
2018-09-19T06:58:55.070Z,14.50
2018-09-19T06:59:55.313Z,19.20
2018-09-19T07:00:55.563Z,17.80
2018-09-19T07:01:55.810Z,18.60
2018-09-19T07:02:56.056Z,20.80
2018-09-19T07:03:56.305Z,20.40
2018-09-19T07:04:56.552Z,19.90
2018-09-19T07:05:56.853Z,15.00
2018-09-19T07:06:57.048Z,20.80
2018-09-19T07:07:57.295Z,18.00
2018-09-19T07:08:57.542Z,16.20
2018-09-19T07:09:57.789Z,19.10
2018-09-19T07:10:58.038Z,13.80
2018-09-19T07:11:58.289Z,14.90
2018-09-19T07:12:58.535Z,15.60
2018-09-19T07:13:58.783Z,18.40
2018-09-19T07:14:59.030Z,20.40
2018-09-19T07:15:59.279Z,18.40
2018-09-19T07:16:59.537Z,18.50
2018-09-19T07:17:59.777Z,26.60
2018-09-19T07:19:00.092Z,17.40
2018-09-19T07:20:00.277Z,15.20
2018-09-19T07:21:00.521Z,19.80
2018-09-19T07:22:00.770Z,13.20
2018-09-19T07:23:01.018Z,23.20
2018-09-19T07:24:01.269Z,23.60
2018-09-19T07:25:01.561Z,22.80
2018-09-19T07:26:01.770Z,20.00
2018-09-19T07:27:02.013Z,14.60
2018-09-19T07:28:02.260Z,21.00
2018-09-19T07:29:02.512Z,18.20
2018-09-19T07:30:02.758Z,15.10
2018-09-19T07:31:03.024Z,23.40
2018-09-19T07:32:03.258Z,20.20
2018-09-19T07:33:03.505Z,26.10
2018-09-19T07:34:03.754Z,17.60
2018-09-19T07:35:04.007Z,24.30
2018-09-19T07:36:04.251Z,20.50
2018-09-19T07:37:04.501Z,24.10
2018-09-19T07:38:04.748Z,18.00
2018-09-19T07:39:05.000Z,14.50
2018-09-19T07:40:05.294Z,22.50
2018-09-19T07:41:05.498Z,19.00
2018-09-19T07:42:05.746Z,19.30
2018-09-19T07:43:05.993Z,18.50
2018-09-19T07:44:06.243Z,13.40
2018-09-19T07:45:06.490Z,14.20
2018-09-19T07:46:06.737Z,12.10
2018-09-19T07:47:06.990Z,11.90
2018-09-19T07:48:07.235Z,11.80
2018-09-19T07:49:07.486Z,12.20
2018-09-19T07:50:07.734Z,14.50
2018-09-19T07:51:07.983Z,11.80
2018-09-19T07:52:08.236Z,15.20
2018-09-19T07:53:08.486Z,9.80
2018-09-19T07:54:08.735Z,11.80
2018-09-19T07:55:09.006Z,11.80
2018-09-19T07:56:09.236Z,22.90
2018-09-19T07:57:09.508Z,9.40
2018-09-19T07:58:09.736Z,9.90
2018-09-19T07:59:09.978Z,8.10
2018-09-19T08:00:10.241Z,13.90
2018-09-19T08:01:10.508Z,9.70
2018-09-19T08:02:10.740Z,8.60
2018-09-19T08:03:11.013Z,7.80
2018-09-19T08:04:11.237Z,7.90
2018-09-19T08:05:11.488Z,7.20
2018-09-19T08:06:11.735Z,12.70
2018-09-19T08:07:11.987Z,10.00
2018-09-19T08:08:12.243Z,10.70
2018-09-19T08:09:12.523Z,12.30
2018-09-19T08:10:12.746Z,9.70
2018-09-19T08:11:12.998Z,8.40
2018-09-19T08:12:13.244Z,9.20
2018-09-19T08:13:13.499Z,8.00
2018-09-19T08:14:13.773Z,11.50
2018-09-19T08:15:13.995Z,10.40
2018-09-19T08:16:14.249Z,9.20
2018-09-19T08:17:14.500Z,6.90
2018-09-19T08:18:14.749Z,10.40
2018-09-19T08:19:15.003Z,9.20
2018-09-19T08:20:15.248Z,10.40
2018-09-19T08:21:15.503Z,8.80
2018-09-19T08:22:15.752Z,11.90
2018-09-19T08:23:16.008Z,6.70
2018-09-19T08:24:16.258Z,6.70
2018-09-19T08:25:16.516Z,10.80
2018-09-19T08:26:16.763Z,8.20
2018-09-19T08:27:17.022Z,7.00
2018-09-19T08:28:17.263Z,8.70
2018-09-19T08:29:17.514Z,9.00
2018-09-19T08:30:17.769Z,7.30
2018-09-19T08:31:18.016Z,8.80
2018-09-19T08:32:18.267Z,10.60
2018-09-19T08:33:18.518Z,7.10
2018-09-19T08:34:18.770Z,6.30
2018-09-19T08:35:19.048Z,9.10
2018-09-19T08:36:19.270Z,7.30
2018-09-19T08:37:19.522Z,13.00
2018-09-19T08:38:19.770Z,8.50
2018-09-19T08:39:20.020Z,10.50
2018-09-19T08:40:20.271Z,9.10
2018-09-19T08:41:20.522Z,9.10
2018-09-19T08:42:20.772Z,7.90
2018-09-19T08:43:21.027Z,12.60
2018-09-19T08:44:21.277Z,12.20
2018-09-19T08:45:21.532Z,6.70
2018-09-19T08:46:21.781Z,7.90
2018-09-19T08:47:22.034Z,7.00
2018-09-19T08:48:22.285Z,6.70
2018-09-19T08:49:22.546Z,6.50
2018-09-19T08:50:22.852Z,6.00
2018-09-19T08:51:23.043Z,7.90
2018-09-19T08:52:23.299Z,7.30
2018-09-19T08:53:23.550Z,7.80
2018-09-19T08:54:23.802Z,9.40
2018-09-19T08:55:24.056Z,10.30
2018-09-19T08:56:24.308Z,7.80
2018-09-19T08:57:24.560Z,7.40
2018-09-19T08:58:24.816Z,4.50
2018-09-19T08:59:25.069Z,6.30
2018-09-19T09:00:25.324Z,7.60
2018-09-19T09:01:25.581Z,7.90
2018-09-19T09:02:25.833Z,4.00
2018-09-19T09:03:26.085Z,6.10
2018-09-19T09:04:26.338Z,4.60
2018-09-19T09:05:26.675Z,4.50
2018-09-19T09:06:26.835Z,7.10
2018-09-19T09:07:27.087Z,2.90
2018-09-19T09:08:27.341Z,3.50
2018-09-19T09:09:27.595Z,5.10
2018-09-19T09:10:27.850Z,4.40
2018-09-19T09:11:28.106Z,4.10
2018-09-19T09:12:28.364Z,6.00
2018-09-19T09:13:28.623Z,4.40
2018-09-19T09:14:28.864Z,5.40
2018-09-19T09:15:29.118Z,7.50
2018-09-19T09:16:29.377Z,5.20
2018-09-19T09:17:29.624Z,7.50
2018-09-19T09:18:29.874Z,3.30
2018-09-19T09:19:30.128Z,6.00
2018-09-19T09:20:30.414Z,2.30
2018-09-19T09:21:30.636Z,3.20
2018-09-19T09:22:30.889Z,3.70
2018-09-19T09:23:31.145Z,5.00
2018-09-19T09:24:31.399Z,3.10
2018-09-19T09:25:31.648Z,3.80
2018-09-19T09:26:31.903Z,3.90
2018-09-19T09:27:32.154Z,4.20
2018-09-19T09:28:32.407Z,5.20
2018-09-19T09:29:32.659Z,5.00
2018-09-19T09:30:32.916Z,5.90
2018-09-19T09:31:33.168Z,5.90
2018-09-19T09:32:33.424Z,2.70
2018-09-19T09:33:33.674Z,5.20
2018-09-19T09:34:33.930Z,4.10
2018-09-19T09:35:34.184Z,4.10
2018-09-19T09:36:34.477Z,5.40
2018-09-19T09:37:34.692Z,5.90
2018-09-19T09:38:34.944Z,4.40
2018-09-19T09:39:35.202Z,5.20
2018-09-19T09:40:35.523Z,5.40
2018-09-19T09:41:35.709Z,4.40
2018-09-19T09:42:35.965Z,4.50
2018-09-19T09:43:36.253Z,7.00
2018-09-19T09:44:36.476Z,5.50
2018-09-19T09:45:36.729Z,5.50
2018-09-19T09:46:36.983Z,5.10
2018-09-19T09:47:37.231Z,4.80
2018-09-19T09:48:37.488Z,5.30
2018-09-19T09:49:37.741Z,5.20
2018-09-19T09:50:37.999Z,4.20
2018-09-19T09:51:38.315Z,6.70
2018-09-19T09:52:38.505Z,3.20
2018-09-19T09:53:38.766Z,4.30
2018-09-19T09:54:39.016Z,5.50
2018-09-19T09:55:39.270Z,6.30
2018-09-19T09:56:39.527Z,6.00
2018-09-19T09:57:39.785Z,5.90
2018-09-19T09:58:40.040Z,3.40
2018-09-19T09:59:40.295Z,7.50
2018-09-19T10:00:40.552Z,8.40
2018-09-19T10:01:40.803Z,5.80
2018-09-19T10:02:41.059Z,9.40
2018-09-19T10:03:41.318Z,5.50
2018-09-19T10:04:41.569Z,6.60
2018-09-19T10:05:41.825Z,11.30
2018-09-19T10:06:42.082Z,5.10
2018-09-19T10:07:42.336Z,4.80
2018-09-19T10:08:42.591Z,5.70
2018-09-19T10:09:42.846Z,5.50
2018-09-19T10:10:43.103Z,3.00
2018-09-19T10:11:43.363Z,7.70
2018-09-19T10:12:43.618Z,4.60
2018-09-19T10:13:43.924Z,2.30
2018-09-19T10:14:44.129Z,3.40
2018-09-19T10:15:44.387Z,2.50
2018-09-19T10:16:44.645Z,3.60
2018-09-19T10:17:44.894Z,4.30
2018-09-19T10:18:45.151Z,2.80
2018-09-19T10:19:45.403Z,3.70
2018-09-19T10:20:45.660Z,6.90
2018-09-19T10:21:45.914Z,2.90
2018-09-19T10:22:46.168Z,3.40
2018-09-19T10:23:46.422Z,6.80
2018-09-19T10:24:46.676Z,4.60
2018-09-19T10:25:46.931Z,5.20
2018-09-19T10:26:47.186Z,3.70
2018-09-19T10:27:47.441Z,3.00
2018-09-19T10:28:47.697Z,3.60
2018-09-19T10:29:47.952Z,3.30
2018-09-19T10:30:48.205Z,4.90
2018-09-19T10:31:48.459Z,2.90
2018-09-19T10:32:48.714Z,2.80
2018-09-19T10:33:48.968Z,3.50
2018-09-19T10:34:49.224Z,3.90
2018-09-19T10:35:49.485Z,8.10
2018-09-19T10:36:49.736Z,2.40
2018-09-19T10:37:49.992Z,4.90
2018-09-19T10:38:50.249Z,8.20
2018-09-19T10:39:50.503Z,5.00
2018-09-19T10:40:50.758Z,3.40
2018-09-19T10:41:51.013Z,4.00
2018-09-19T10:42:51.268Z,3.10
2018-09-19T10:43:51.582Z,5.50
2018-09-19T10:44:51.779Z,6.40
2018-09-19T10:45:52.034Z,3.30
2018-09-19T10:46:52.293Z,6.70
2018-09-19T10:47:52.543Z,6.90
2018-09-19T10:48:52.795Z,6.10
2018-09-19T10:49:53.054Z,1.90
2018-09-19T10:50:53.306Z,4.40
2018-09-19T10:51:53.560Z,4.00
2018-09-19T10:52:53.813Z,4.50
2018-09-19T10:53:54.076Z,2.60
2018-09-19T10:54:54.325Z,1.60
2018-09-19T10:55:54.579Z,2.40
2018-09-19T10:56:54.870Z,3.50
2018-09-19T10:57:55.089Z,3.20
2018-09-19T10:58:55.345Z,2.40
2018-09-19T10:59:55.602Z,7.90
2018-09-19T11:00:55.860Z,2.70
2018-09-19T11:01:56.112Z,5.40
2018-09-19T11:02:56.369Z,1.80
2018-09-19T11:03:56.641Z,3.20
2018-09-19T11:04:56.879Z,1.80
2018-09-19T11:05:57.136Z,2.10
2018-09-19T11:06:57.395Z,6.30
2018-09-19T11:07:57.653Z,2.10
2018-09-19T11:08:57.912Z,6.70
2018-09-19T11:09:58.171Z,3.80
2018-09-19T11:10:58.430Z,3.80
2018-09-19T11:11:58.687Z,3.00
2018-09-19T11:12:58.944Z,4.30
2018-09-19T11:13:59.198Z,1.40
2018-09-19T11:14:59.454Z,1.90
2018-09-19T11:15:59.710Z,5.30
2018-09-19T11:16:59.979Z,3.20
2018-09-19T11:18:00.219Z,6.00
2018-09-19T11:19:00.474Z,3.30
2018-09-19T11:20:00.733Z,4.50
2018-09-19T11:21:00.984Z,1.60
2018-09-19T11:22:01.238Z,2.20
2018-09-19T11:23:01.491Z,1.80
2018-09-19T11:24:01.745Z,3.30
2018-09-19T11:25:02.001Z,3.10
2018-09-19T11:26:02.255Z,3.10
2018-09-19T11:27:02.508Z,3.80
2018-09-19T11:28:02.762Z,3.70
2018-09-19T11:29:03.018Z,3.90
2018-09-19T11:30:03.274Z,3.40
2018-09-19T11:31:03.532Z,1.90
2018-09-19T11:32:03.788Z,1.70
2018-09-19T11:33:04.044Z,3.10
2018-09-19T11:34:04.298Z,3.50
2018-09-19T11:35:04.552Z,2.40
2018-09-19T11:36:04.809Z,2.30
2018-09-19T11:37:05.071Z,3.40
2018-09-19T11:38:05.320Z,1.60
2018-09-19T11:39:05.576Z,2.70
2018-09-19T11:40:05.831Z,3.80
2018-09-19T11:41:06.102Z,2.90
2018-09-19T11:42:06.356Z,2.90
2018-09-19T11:43:06.614Z,3.20
2018-09-19T11:44:06.907Z,4.20
2018-09-19T11:45:07.162Z,5.20
2018-09-19T11:46:07.418Z,2.20
2018-09-19T11:47:07.674Z,2.60
2018-09-19T11:48:07.926Z,3.90
2018-09-19T11:49:08.183Z,4.90
2018-09-19T11:50:08.434Z,4.20
2018-09-19T11:51:08.687Z,4.70
2018-09-19T11:52:08.942Z,3.20
2018-09-19T11:53:09.199Z,3.40
2018-09-19T11:54:09.454Z,4.90
2018-09-19T11:55:09.711Z,1.80
2018-09-19T11:56:09.966Z,5.60
2018-09-19T11:57:10.221Z,3.70
2018-09-19T11:58:10.524Z,3.10
2018-09-19T11:59:10.733Z,2.60
2018-09-19T12:00:10.992Z,2.40
2018-09-19T12:01:11.243Z,4.80
2018-09-19T12:02:11.501Z,2.20
2018-09-19T12:03:11.756Z,1.50
2018-09-19T12:04:12.012Z,3.70
2018-09-19T12:05:12.273Z,2.30
2018-09-19T12:06:12.522Z,2.80
2018-09-19T12:07:12.827Z,2.10
2018-09-19T12:08:13.033Z,1.30
2018-09-19T12:09:13.323Z,4.70
2018-09-19T12:10:13.547Z,4.20
2018-09-19T12:11:13.809Z,2.30
2018-09-19T12:12:14.060Z,4.30
2018-09-19T12:13:14.315Z,3.50
2018-09-19T12:14:14.570Z,3.00
2018-09-19T12:15:14.827Z,3.10
2018-09-19T12:16:15.083Z,1.30
2018-09-19T12:17:15.341Z,1.60
2018-09-19T12:18:15.597Z,5.50
2018-09-19T12:19:15.855Z,4.50
2018-09-19T12:20:16.114Z,4.60
2018-09-19T12:21:16.368Z,3.00
2018-09-19T12:22:16.626Z,5.50
2018-09-19T12:23:16.885Z,3.10
2018-09-19T12:24:17.139Z,2.20
2018-09-19T12:25:17.394Z,2.30
2018-09-19T12:26:17.678Z,2.80
2018-09-19T12:27:17.909Z,2.80
2018-09-19T12:28:18.166Z,7.50
2018-09-19T12:29:18.420Z,3.90
2018-09-19T12:30:18.679Z,5.20
2018-09-19T12:31:18.929Z,4.00
2018-09-19T12:32:19.186Z,2.90
2018-09-19T12:33:19.496Z,2.90
2018-09-19T12:34:19.696Z,5.80
2018-09-19T12:35:19.950Z,2.80
2018-09-19T12:36:20.204Z,3.60
2018-09-19T12:37:20.460Z,1.80
2018-09-19T12:38:20.719Z,1.70
2018-09-19T12:39:20.973Z,3.80
2018-09-19T12:40:21.228Z,2.80
2018-09-19T12:41:21.483Z,3.60
2018-09-19T12:42:21.738Z,3.00
2018-09-19T12:43:21.996Z,2.90
2018-09-19T12:44:22.248Z,2.40
2018-09-19T12:45:22.504Z,4.20
2018-09-19T12:46:22.761Z,2.20
2018-09-19T12:47:23.017Z,4.50
2018-09-19T12:48:23.273Z,2.30
2018-09-19T12:49:23.532Z,2.90
2018-09-19T12:50:23.786Z,4.60
2018-09-19T12:51:24.039Z,2.10
2018-09-19T12:52:24.296Z,3.30
2018-09-19T12:53:24.651Z,2.90
2018-09-19T12:54:24.809Z,6.60
2018-09-19T12:55:25.065Z,3.70
2018-09-19T12:56:25.318Z,2.00
2018-09-19T12:57:25.575Z,2.50
2018-09-19T12:58:25.831Z,2.10
2018-09-19T12:59:26.088Z,2.40
2018-09-19T13:00:26.342Z,3.10
2018-09-19T13:01:26.597Z,3.30
2018-09-19T13:02:26.853Z,5.00
2018-09-19T13:03:27.108Z,3.80
2018-09-19T13:04:27.366Z,5.10
2018-09-19T13:05:27.619Z,5.80
2018-09-19T13:06:27.875Z,1.50
2018-09-19T13:07:28.130Z,1.40
2018-09-19T13:08:28.384Z,2.70